Time;durP1;ratioP1;P1;durP2;ratioP2;P2;SDS_P1;SDS_P2;PMS_P1;PMS_P2;Temp;Humidity;BMP_temperature;BMP_pressure;BME280_temperature;BME280_humidity;BME280_pressure;Samples;Min_cycle;Max_cycle;Signal;HPM_P1;HPM_P2
2022/03/27 00:00:00;;;;;;;31.63;5.03;;;2.90;73.50;;;;;;4039822;28;20501;-80
2022/03/27 00:02:05;;;;;;;36.45;5.88;;;2.90;73.40;;;;;;4117761;28;20070;-79
2022/03/27 00:04:06;;;;;;;42.78;5.97;;;2.90;73.20;;;;;;4051512;28;20067;-80
2022/03/27 00:06:10;;;;;;;35.88;6.03;;;2.80;73.30;;;;;;4118098;28;20031;-80
2022/03/27 00:08:10;;;;;;;32.40;5.35;;;2.80;73.40;;;;;;4041996;28;20040;-78
2022/03/27 00:10:11;;;;;;;23.83;5.72;;;2.80;73.40;;;;;;4041723;28;20042;-79
2022/03/27 00:12:13;;;;;;;26.98;4.90;;;2.80;73.30;;;;;;4119607;28;20026;-78
2022/03/27 00:14:13;;;;;;;29.92;6.15;;;2.80;73.20;;;;;;4040733;28;20040;-78
2022/03/27 00:16:14;;;;;;;34.95;4.93;;;2.80;73.20;;;;;;4017841;28;20176;-78
2022/03/27 00:18:15;;;;;;;29.85;5.35;;;2.70;73.20;;;;;;4099571;28;20062;-78
2022/03/27 00:20:16;;;;;;;44.33;6.20;;;2.70;73.30;;;;;;4037523;28;20109;-79
2022/03/27 00:22:17;;;;;;;43.42;6.88;;;2.70;73.30;;;;;;4102986;28;20034;-79
2022/03/27 00:24:18;;;;;;;31.60;5.43;;;2.70;73.50;;;;;;4049440;28;20040;-79
2022/03/27 00:26:31;;;;;;;31.95;5.15;;;2.70;73.80;;;;;;4039017;28;20040;-79
2022/03/27 00:29:00;;;;;;;37.78;5.55;;;2.60;73.80;;;;;;4061315;28;20040;-80
2022/03/27 00:31:09;;;;;;;35.17;6.25;;;2.60;73.90;;;;;;4024348;28;20585;-79
2022/03/27 00:33:10;;;;;;;31.25;5.50;;;2.60;73.90;;;;;;4043443;28;20034;-79
2022/03/27 00:35:10;;;;;;;21.52;4.40;;;2.60;73.80;;;;;;4120903;28;20382;-78
2022/03/27 00:37:12;;;;;;;28.52;5.68;;;2.50;73.60;;;;;;4086346;28;20436;-78
2022/03/27 00:39:13;;;;;;;30.50;5.32;;;2.50;73.70;;;;;;4027930;28;20172;-78
2022/03/27 00:41:14;;;;;;;27.42;6.15;;;2.50;73.80;;;;;;4116141;28;20058;-78
2022/03/27 00:43:15;;;;;;;42.42;5.60;;;2.50;73.90;;;;;;4118249;28;20117;-77
2022/03/27 00:45:15;;;;;;;33.97;5.07;;;2.50;73.90;;;;;;4051170;28;20071;-77
2022/03/27 00:47:16;;;;;;;28.40;5.47;;;2.40;73.80;;;;;;4046618;28;20057;-78
2022/03/27 00:49:17;;;;;;;37.10;5.55;;;2.30;73.70;;;;;;4039073;28;20431;-79
2022/03/27 00:51:18;;;;;;;32.35;6.35;;;2.30;73.70;;;;;;4046870;28;20037;-79
2022/03/27 00:53:19;;;;;;;42.30;8.43;;;2.30;73.80;;;;;;4105163;28;20065;-79
2022/03/27 00:55:19;;;;;;;42.33;6.82;;;2.30;73.90;;;;;;4121183;28;20121;-78
2022/03/27 00:57:20;;;;;;;36.50;6.68;;;2.20;73.90;;;;;;4035928;28;20144;-78
2022/03/27 00:59:21;;;;;;;34.10;4.95;;;2.20;73.90;;;;;;4031890;28;20079;-77
2022/03/27 01:01:24;;;;;;;33.40;6.10;;;2.20;74.00;;;;;;4042116;28;20059;-77
2022/03/27 01:03:26;;;;;;;42.10;6.57;;;2.20;74.00;;;;;;4038851;28;20058;-78
2022/03/27 01:05:28;;;;;;;31.67;5.45;;;2.20;74.10;;;;;;4047706;28;20116;-78
2022/03/27 01:07:28;;;;;;;49.80;6.22;;;2.10;74.20;;;;;;4047471;28;20398;-78
2022/03/27 01:09:38;;;;;;;43.55;7.45;;;2.20;74.20;;;;;;4043197;28;20045;-78
2022/03/27 01:11:39;;;;;;;36.05;5.90;;;2.10;74.10;;;;;;4043703;28;20094;-78
2022/03/27 01:13:45;;;;;;;38.85;6.35;;;2.10;74.10;;;;;;4041391;28;20514;-77
2022/03/27 01:15:50;;;;;;;37.38;6.45;;;2.10;74.20;;;;;;4120712;28;20042;-77
2022/03/27 01:17:51;;;;;;;40.08;7.15;;;2.00;74.30;;;;;;4049397;28;20036;-77
2022/03/27 01:19:52;;;;;;;39.28;6.50;;;2.00;74.40;;;;;;4026426;28;20096;-77
2022/03/27 01:21:53;;;;;;;43.58;6.35;;;2.00;74.50;;;;;;4055736;28;20040;-77
2022/03/27 01:23:56;;;;;;;43.55;6.78;;;2.00;74.40;;;;;;4043769;28;20032;-78
2022/03/27 01:25:57;;;;;;;;;;;1.90;74.30;;;;;;4045571;28;20119;-78
2022/03/27 01:27:57;;;;;;;45.22;6.60;;;1.90;74.70;;;;;;4052717;28;20391;-77
2022/03/27 01:29:59;;;;;;;43.00;7.30;;;1.90;74.60;;;;;;4101896;28;20114;-78
2022/03/27 01:32:00;;;;;;;32.03;6.15;;;1.80;75.30;;;;;;4043266;28;20083;-78
2022/03/27 01:34:02;;;;;;;34.45;5.63;;;1.80;74.50;;;;;;4023586;28;20025;-78
2022/03/27 01:36:03;;;;;;;39.47;6.65;;;1.70;74.50;;;;;;4043698;28;20029;-78
2022/03/27 01:38:04;;;;;;;27.75;6.22;;;1.70;74.60;;;;;;4048250;28;20025;-78
2022/03/27 01:40:07;;;;;;;33.42;6.18;;;1.70;74.60;;;;;;4043917;28;20028;-78
2022/03/27 01:42:08;;;;;;;44.95;6.78;;;1.70;74.70;;;;;;4044813;28;20029;-78
2022/03/27 01:44:12;;;;;;;31.45;6.15;;;1.70;74.90;;;;;;4030949;28;20041;-78
2022/03/27 01:46:13;;;;;;;33.38;6.80;;;1.70;75.00;;;;;;4103896;28;20038;-78
2022/03/27 01:48:14;;;;;;;47.97;7.70;;;1.60;75.20;;;;;;4056334;28;20343;-78
2022/03/27 01:50:15;;;;;;;44.85;6.72;;;1.60;75.30;;;;;;4024760;28;20060;-78
2022/03/27 01:52:15;;;;;;;46.03;6.97;;;1.60;75.40;;;;;;4038021;28;20511;-78
2022/03/27 01:54:19;;;;;;;45.88;6.72;;;1.50;75.60;;;;;;4100593;28;20582;-78
2022/03/27 01:56:20;;;;;;;32.30;6.80;;;1.50;75.70;;;;;;4052817;28;20505;-78
2022/03/27 01:58:21;;;;;;;39.80;7.15;;;1.50;75.80;;;;;;4042637;28;20078;-78
2022/03/27 02:00:22;;;;;;;44.05;7.18;;;1.50;76.10;;;;;;4009967;28;20056;-78
2022/03/27 02:02:24;;;;;;;50.85;8.25;;;1.50;76.10;;;;;;4061661;28;20047;-79
2022/03/27 02:04:26;;;;;;;36.35;7.82;;;1.50;76.60;;;;;;4045239;28;20029;-78
2022/03/27 02:06:27;;;;;;;36.00;7.18;;;1.50;77.00;;;;;;4045995;28;20056;-78
2022/03/27 02:08:28;;;;;;;41.90;8.20;;;1.50;77.40;;;;;;4057509;28;20033;-78
2022/03/27 02:10:29;;;;;;;43.08;7.95;;;1.60;77.80;;;;;;4025543;28;20131;-78
2022/03/27 02:12:34;;;;;;;47.95;8.32;;;1.50;78.10;;;;;;4042105;28;20084;-78
2022/03/27 02:14:34;;;;;;;46.65;8.50;;;1.50;78.20;;;;;;4057123;28;20040;-78
2022/03/27 02:16:35;;;;;;;40.08;6.70;;;1.50;78.20;;;;;;4053023;28;20171;-78
2022/03/27 02:18:36;;;;;;;36.97;7.05;;;1.50;78.30;;;;;;4022592;28;20077;-78
2022/03/27 02:20:37;;;;;;;26.15;6.50;;;1.50;78.20;;;;;;4098129;28;20026;-78
2022/03/27 02:22:37;;;;;;;41.55;6.30;;;1.60;78.10;;;;;;4042695;28;20127;-78
2022/03/27 02:24:38;;;;;;;26.40;6.22;;;1.60;78.00;;;;;;4030010;28;20029;-78
2022/03/27 02:26:46;;;;;;;37.72;7.05;;;1.60;77.70;;;;;;4055976;28;20036;-78
2022/03/27 02:28:46;;;;;;;31.15;6.38;;;1.60;77.50;;;;;;4056272;28;20044;-78
2022/03/27 02:30:47;;;;;;;33.75;6.30;;;1.60;77.30;;;;;;4029055;28;20041;-78
2022/03/27 02:32:48;;;;;;;26.70;5.60;;;1.60;77.10;;;;;;4103573;28;20035;-78
2022/03/27 02:34:49;;;;;;;33.95;6.43;;;1.60;76.90;;;;;;4047001;28;20434;-78
2022/03/27 02:36:49;;;;;;;30.88;5.75;;;1.60;76.90;;;;;;4122056;28;20069;-78
2022/03/27 02:38:50;;;;;;;35.03;6.20;;;1.60;76.90;;;;;;4041312;28;20033;-78
2022/03/27 02:40:52;;;;;;;33.10;5.57;;;1.60;76.80;;;;;;4073207;28;20035;-78
2022/03/27 02:42:53;;;;;;;40.75;6.85;;;1.60;76.60;;;;;;4059688;28;20035;-78
2022/03/27 02:44:53;;;;;;;23.35;5.00;;;1.60;76.50;;;;;;4071533;29;20055;-78
2022/03/27 02:46:54;;;;;;;37.55;6.07;;;1.60;76.40;;;;;;4047311;28;20044;-78
2022/03/27 02:48:55;;;;;;;36.30;7.72;;;1.50;76.40;;;;;;4010347;29;20045;-78
2022/03/27 02:50:55;;;;;;;32.53;6.40;;;1.50;76.30;;;;;;4043485;28;20230;-78
2022/03/27 02:52:56;;;;;;;38.90;6.75;;;1.50;76.20;;;;;;4040848;28;20067;-78
2022/03/27 02:54:58;;;;;;;37.67;6.30;;;1.50;76.20;;;;;;4028936;28;20047;-78
2022/03/27 02:56:58;;;;;;;34.17;6.18;;;1.40;76.10;;;;;;4064843;28;20442;-78
2022/03/27 02:58:59;;;;;;;34.70;6.30;;;1.40;76.10;;;;;;4117429;28;20093;-78
2022/03/27 03:01:00;;;;;;;40.22;6.72;;;1.40;76.10;;;;;;4046183;28;20025;-78
2022/03/27 03:03:00;;;;;;;36.13;6.57;;;1.30;76.20;;;;;;4008121;29;20048;-78
2022/03/27 03:05:02;;;;;;;32.60;5.63;;;1.30;76.20;;;;;;4042409;28;20533;-78
2022/03/27 03:07:03;;;;;;;32.70;6.88;;;1.30;76.20;;;;;;4042788;28;20462;-78
2022/03/27 03:09:04;;;;;;;35.38;6.85;;;1.30;76.30;;;;;;4056089;28;20059;-78
2022/03/27 03:11:05;;;;;;;29.85;6.22;;;1.30;76.30;;;;;;4048111;28;20065;-79
2022/03/27 03:13:08;;;;;;;28.30;5.72;;;1.30;76.40;;;;;;4047693;28;20032;-78
2022/03/27 03:15:10;;;;;;;27.33;6.55;;;1.20;76.30;;;;;;4057588;28;20417;-78
2022/03/27 03:17:11;;;;;;;45.10;6.53;;;1.20;76.30;;;;;;4048879;28;20107;-78
2022/03/27 03:19:12;;;;;;;36.85;6.32;;;1.20;76.40;;;;;;4042872;28;20037;-78
2022/03/27 03:21:13;;;;;;;31.83;6.28;;;1.20;76.50;;;;;;4047514;28;20029;-78
2022/03/27 03:23:13;;;;;;;36.70;6.72;;;1.20;76.70;;;;;;4057112;28;20110;-79
2022/03/27 03:25:14;;;;;;;41.10;7.35;;;1.20;76.90;;;;;;4122653;28;20072;-78
2022/03/27 03:27:15;;;;;;;39.97;6.70;;;1.20;77.20;;;;;;4046801;28;20025;-79
2022/03/27 03:29:17;;;;;;;30.80;5.80;;;1.20;77.50;;;;;;4108682;28;20022;-78
2022/03/27 03:31:18;;;;;;;34.83;6.53;;;1.20;77.60;;;;;;4053632;28;20461;-78
2022/03/27 03:33:21;;;;;;;29.40;6.05;;;1.20;77.60;;;;;;4045918;28;20036;-78
2022/03/27 03:35:23;;;;;;;32.45;6.07;;;1.20;77.60;;;;;;4022057;29;20027;-78
2022/03/27 03:37:25;;;;;;;34.13;6.45;;;1.20;77.50;;;;;;4044688;28;20037;-78
2022/03/27 03:39:26;;;;;;;38.63;5.90;;;1.20;77.40;;;;;;4000275;29;20508;-78
2022/03/27 03:41:27;;;;;;;29.83;6.13;;;1.30;77.40;;;;;;4025013;28;20029;-78
2022/03/27 03:43:28;;;;;;;31.08;5.88;;;1.20;77.20;;;;;;4044431;28;20024;-78
2022/03/27 03:45:28;;;;;;;29.50;5.30;;;1.20;76.90;;;;;;4037135;28;20152;-78
2022/03/27 03:47:29;;;;;;;32.35;6.57;;;1.20;76.80;;;;;;4042513;28;20041;-78
2022/03/27 03:49:30;;;;;;;34.72;6.13;;;1.10;76.80;;;;;;4103628;28;20043;-78
2022/03/27 03:51:30;;;;;;;33.92;6.25;;;1.10;76.80;;;;;;4067773;28;20032;-78
2022/03/27 03:53:31;;;;;;;42.58;7.65;;;1.10;76.80;;;;;;4037929;28;20025;-78
2022/03/27 03:55:32;;;;;;;46.40;7.65;;;1.00;76.80;;;;;;4027522;28;20127;-78
2022/03/27 03:57:32;;;;;;;55.13;7.55;;;1.00;76.90;;;;;;4091547;28;20027;-78
2022/03/27 03:59:33;;;;;;;41.97;7.78;;;1.00;77.90;;;;;;4045817;28;20123;-78
2022/03/27 04:01:34;;;;;;;35.45;8.02;;;0.90;77.20;;;;;;4034820;28;20521;-78
2022/03/27 04:03:34;;;;;;;37.72;6.88;;;0.90;77.40;;;;;;4043148;28;20515;-77
2022/03/27 04:05:35;;;;;;;35.50;6.63;;;0.90;77.50;;;;;;4062150;28;20051;-78
2022/03/27 04:07:36;;;;;;;39.25;7.15;;;1.00;77.70;;;;;;4044658;28;20036;-77
2022/03/27 04:09:36;;;;;;;35.42;6.45;;;0.90;77.60;;;;;;4063101;28;20213;-77
2022/03/27 04:11:37;;;;;;;28.08;7.00;;;0.90;77.70;;;;;;4108295;28;20031;-77
2022/03/27 04:13:38;;;;;;;47.65;8.00;;;0.90;77.80;;;;;;4049713;28;20032;-78
2022/03/27 04:15:39;;;;;;;31.98;7.90;;;0.90;77.90;;;;;;4032727;28;20660;-77
2022/03/27 04:17:45;;;;;;;43.05;9.00;;;0.90;78.00;;;;;;4044483;28;20033;-77
2022/03/27 04:19:46;;;;;;;42.63;6.70;;;0.90;78.20;;;;;;4018670;29;20636;-77
2022/03/27 04:21:46;;;;;;;37.92;6.80;;;0.90;78.40;;;;;;4043513;28;20115;-77
2022/03/27 04:23:47;;;;;;;41.45;6.45;;;0.90;78.50;;;;;;4027757;28;20053;-78
2022/03/27 04:25:48;;;;;;;51.38;7.55;;;0.80;78.40;;;;;;4051290;28;20123;-77
2022/03/27 04:27:49;;;;;;;35.25;6.30;;;0.90;78.40;;;;;;4045146;28;20585;-78
2022/03/27 04:29:49;;;;;;;30.55;5.90;;;0.90;78.30;;;;;;4040476;28;20037;-78
2022/03/27 04:31:53;;;;;;;35.53;5.75;;;0.90;78.30;;;;;;4043219;28;20095;-78
2022/03/27 04:33:55;;;;;;;37.40;6.70;;;0.90;78.20;;;;;;4063175;28;20032;-78
2022/03/27 04:35:56;;;;;;;33.97;6.88;;;0.90;78.10;;;;;;4053305;28;20037;-78
2022/03/27 04:37:57;;;;;;;31.00;5.78;;;0.90;78.00;;;;;;4063898;28;20035;-78
2022/03/27 04:40:02;;;;;;;29.23;6.43;;;0.90;77.90;;;;;;4057535;28;20031;-78
2022/03/27 04:42:03;;;;;;;20.25;5.30;;;0.90;77.80;;;;;;4040717;28;20461;-78
2022/03/27 04:44:05;;;;;;;39.22;5.80;;;0.90;77.60;;;;;;4047702;28;20040;-78
2022/03/27 04:46:07;;;;;;;31.80;5.15;;;0.90;77.50;;;;;;4042186;28;20036;-78
2022/03/27 04:48:08;;;;;;;35.97;6.45;;;0.90;77.40;;;;;;4027738;28;20083;-78
2022/03/27 04:50:09;;;;;;;30.08;6.05;;;0.90;77.30;;;;;;4048985;28;20318;-78
2022/03/27 04:52:10;;;;;;;32.92;6.57;;;0.90;77.20;;;;;;4046678;28;20143;-78
2022/03/27 04:54:11;;;;;;;29.27;5.35;;;0.90;77.20;;;;;;4039320;28;20048;-78
2022/03/27 04:56:22;;;;;;;29.88;5.55;;;0.80;77.10;;;;;;4065965;28;20040;-78
2022/03/27 04:58:24;;;;;;;29.55;6.05;;;0.80;77.00;;;;;;4098211;28;20094;-78
2022/03/27 05:00:24;;;;;;;23.40;6.32;;;0.80;77.00;;;;;;4042806;28;20061;-78
2022/03/27 05:02:28;;;;;;;34.10;5.20;;;0.80;77.00;;;;;;4047007;28;20044;-78
2022/03/27 05:04:28;;;;;;;21.48;4.70;;;0.80;77.10;;;;;;4045620;28;20033;-78
2022/03/27 05:06:29;;;;;;;25.90;4.97;;;0.70;77.00;;;;;;4073997;28;20051;-78
2022/03/27 05:08:32;;;;;;;32.17;5.00;;;0.70;77.00;;;;;;4107294;28;20039;-78
2022/03/27 05:10:33;;;;;;;24.83;5.10;;;0.80;77.10;;;;;;4029360;28;20032;-78
2022/03/27 05:12:34;;;;;;;36.45;6.57;;;0.70;77.10;;;;;;4045522;28;20044;-78
2022/03/27 05:14:34;;;;;;;34.63;5.82;;;0.80;77.20;;;;;;4049075;28;20056;-77
2022/03/27 05:16:35;;;;;;;37.28;6.55;;;0.70;77.10;;;;;;4073110;28;20041;-78
2022/03/27 05:18:36;;;;;;;29.73;6.20;;;0.70;77.10;;;;;;4068849;28;20020;-78
2022/03/27 05:20:40;;;;;;;24.45;5.90;;;0.70;77.20;;;;;;4037682;28;20033;-78
2022/03/27 05:22:42;;;;;;;25.50;5.72;;;0.70;77.10;;;;;;4030998;28;20036;-78
2022/03/27 05:24:44;;;;;;;27.15;5.93;;;0.70;77.10;;;;;;4047220;28;20040;-78
2022/03/27 05:26:45;;;;;;;36.10;5.95;;;0.70;77.20;;;;;;4034636;28;20047;-78
2022/03/27 05:28:46;;;;;;;31.30;6.00;;;0.70;77.20;;;;;;4044563;28;20096;-78
2022/03/27 05:30:49;;;;;;;27.30;5.63;;;0.70;77.40;;;;;;4043705;28;20048;-78
2022/03/27 05:32:51;;;;;;;27.33;5.20;;;0.70;77.50;;;;;;4061480;28;20052;-77
2022/03/27 05:34:54;;;;;;;23.08;4.95;;;0.70;77.60;;;;;;4058219;28;20032;-77
2022/03/27 05:36:54;;;;;;;30.27;5.93;;;0.70;77.70;;;;;;4050397;28;20037;-77
2022/03/27 05:38:55;;;;;;;27.35;5.63;;;0.70;77.90;;;;;;4061892;28;20032;-77
2022/03/27 05:40:56;;;;;;;30.17;4.88;;;0.70;78.70;;;;;;4067271;28;20039;-77
2022/03/27 05:42:57;;;;;;;27.02;5.25;;;0.80;78.20;;;;;;4061809;28;20084;-77
2022/03/27 05:44:57;;;;;;;29.13;5.20;;;0.80;78.30;;;;;;4045525;28;20048;-78
2022/03/27 05:46:59;;;;;;;33.65;5.45;;;0.80;78.40;;;;;;4049133;28;20029;-78
2022/03/27 05:49:00;;;;;;;21.67;5.45;;;0.90;79.30;;;;;;4056207;28;20517;-77
2022/03/27 05:51:00;;;;;;;27.15;5.72;;;0.90;78.60;;;;;;4027524;28;20037;-77
2022/03/27 05:53:01;;;;;;;29.58;6.75;;;0.90;78.70;;;;;;4123333;28;20088;-77
2022/03/27 05:55:02;;;;;;;26.27;5.63;;;1.00;78.90;;;;;;4023399;28;20112;-77
2022/03/27 05:57:03;;;;;;;26.25;5.68;;;1.00;79.20;;;;;;4122625;28;20034;-77
2022/03/27 05:59:04;;;;;;;34.25;7.32;;;1.10;79.50;;;;;;4057448;28;20506;-77
2022/03/27 06:01:05;;;;;;;35.50;5.95;;;1.10;79.90;;;;;;4029784;28;20037;-77
2022/03/27 06:03:06;;;;;;;32.70;6.47;;;1.20;80.30;;;;;;4041972;28;20083;-78
2022/03/27 06:05:07;;;;;;;42.05;7.20;;;1.30;80.60;;;;;;4122532;28;20625;-78
2022/03/27 06:07:08;;;;;;;39.53;6.85;;;1.30;81.00;;;;;;4045868;28;20031;-78
2022/03/27 06:09:09;;;;;;;34.75;7.18;;;1.40;81.50;;;;;;4054125;28;20040;-78
2022/03/27 06:11:10;;;;;;;31.50;7.20;;;1.50;81.80;;;;;;4103174;28;20666;-78
2022/03/27 06:13:10;;;;;;;37.60;7.45;;;1.60;82.10;;;;;;4047806;28;20736;-77
2022/03/27 06:15:12;;;;;;;35.75;6.90;;;1.70;83.20;;;;;;4054896;28;20033;-78
2022/03/27 06:17:13;;;;;;;35.15;7.35;;;1.80;82.70;;;;;;4028640;28;20072;-78
2022/03/27 06:19:13;;;;;;;51.80;7.97;;;1.80;83.00;;;;;;4056235;28;20035;-78
2022/03/27 06:21:14;;;;;;;33.20;6.93;;;2.00;83.50;;;;;;4043811;28;20032;-78
2022/03/27 06:23:15;;;;;;;50.30;7.78;;;2.00;83.70;;;;;;4048356;28;20032;-78
2022/03/27 06:25:17;;;;;;;37.17;7.05;;;2.10;84.00;;;;;;4030392;28;20035;-78
2022/03/27 06:27:19;;;;;;;43.45;7.80;;;2.20;84.20;;;;;;4047317;28;20526;-78
2022/03/27 06:29:21;;;;;;;53.30;9.32;;;2.30;84.30;;;;;;4124359;28;20138;-78
2022/03/27 06:31:22;;;;;;;38.15;7.90;;;2.40;84.60;;;;;;4091859;28;20047;-78
2022/03/27 06:33:22;;;;;;;37.20;7.50;;;2.50;85.40;;;;;;4054112;28;20119;-78
2022/03/27 06:35:23;;;;;;;39.35;7.15;;;2.60;85.20;;;;;;4040229;28;20033;-78
2022/03/27 06:37:28;;;;;;;43.95;7.47;;;2.70;85.60;;;;;;4041597;28;20033;-78
2022/03/27 06:39:29;;;;;;;53.67;8.07;;;2.80;85.80;;;;;;4043169;28;20406;-78
2022/03/27 06:41:29;;;;;;;47.35;7.72;;;2.90;85.90;;;;;;4044071;28;20082;-78
2022/03/27 06:43:31;;;;;;;39.33;8.38;;;3.00;86.10;;;;;;4065744;28;20409;-78
2022/03/27 06:45:32;;;;;;;50.88;8.13;;;3.10;86.30;;;;;;4063139;29;20038;-78
2022/03/27 06:47:33;;;;;;;41.53;8.05;;;3.20;86.60;;;;;;4027118;28;20144;-78
2022/03/27 06:49:34;;;;;;;54.63;8.70;;;3.20;86.60;;;;;;4046321;28;20090;-78
2022/03/27 06:51:35;;;;;;;39.83;7.85;;;3.30;86.60;;;;;;4046210;28;20040;-78
2022/03/27 06:53:37;;;;;;;39.42;8.88;;;3.40;86.50;;;;;;4063018;28;20123;-78
2022/03/27 06:55:38;;;;;;;46.13;9.15;;;3.50;86.50;;;;;;4047421;28;20395;-78
2022/03/27 06:57:38;;;;;;;41.88;7.15;;;3.50;86.30;;;;;;4109304;28;20170;-78
2022/03/27 07:04:19;;;;;;;40.17;7.32;;;3.70;85.60;;;;;;4065413;28;20060;-78
2022/03/27 07:06:20;;;;;;;36.40;6.90;;;3.80;85.50;;;;;;4043211;28;20048;-78
2022/03/27 07:08:21;;;;;;;24.00;6.20;;;3.80;85.30;;;;;;4052292;28;20619;-78
2022/03/27 07:10:22;;;;;;;42.20;6.60;;;3.80;85.10;;;;;;4040771;28;20123;-78
2022/03/27 07:12:24;;;;;;;36.60;6.53;;;3.90;85.10;;;;;;4108822;28;20030;-78
2022/03/27 07:14:25;;;;;;;33.30;7.22;;;4.00;85.10;;;;;;4045172;28;20554;-78
2022/03/27 07:16:26;;;;;;;37.28;6.60;;;4.00;85.20;;;;;;4055995;28;20073;-78
2022/03/27 07:18:29;;;;;;;23.98;6.38;;;4.10;85.30;;;;;;4089808;28;20031;-78
2022/03/27 07:20:32;;;;;;;44.58;7.53;;;4.20;85.50;;;;;;4048123;28;20042;-78
2022/03/27 07:22:32;;;;;;;35.58;7.20;;;4.30;85.50;;;;;;4109122;28;20031;-78
2022/03/27 07:24:36;;;;;;;35.97;7.57;;;4.40;85.70;;;;;;4037953;28;20044;-78
2022/03/27 07:26:37;;;;;;;36.80;7.30;;;4.50;85.70;;;;;;4124678;28;20106;-78
2022/03/27 07:28:37;;;;;;;36.85;7.18;;;4.50;85.70;;;;;;4031934;28;20057;-78
2022/03/27 07:30:40;;;;;;;39.17;7.88;;;4.60;86.00;;;;;;4119862;28;20169;-78
2022/03/27 07:32:41;;;;;;;36.70;7.43;;;4.70;86.20;;;;;;4050821;28;20522;-78
2022/03/27 07:34:42;;;;;;;36.45;7.68;;;4.80;86.30;;;;;;4034932;28;20056;-78
2022/03/27 07:36:43;;;;;;;41.03;6.95;;;4.90;86.30;;;;;;4029975;28;20065;-78
2022/03/27 07:38:43;;;;;;;42.25;7.70;;;5.00;86.30;;;;;;4046017;28;20398;-79
2022/03/27 07:40:45;;;;;;;31.92;6.93;;;5.10;86.30;;;;;;4044765;28;20076;-78
2022/03/27 07:42:47;;;;;;;40.17;7.45;;;5.20;86.40;;;;;;4061966;28;20581;-78
2022/03/27 07:44:48;;;;;;;31.55;7.43;;;5.30;86.40;;;;;;4048568;28;20250;-78
2022/03/27 07:46:51;;;;;;;37.15;7.60;;;5.40;86.20;;;;;;4126356;28;20122;-78
2022/03/27 07:48:52;;;;;;;27.27;6.50;;;5.50;86.00;;;;;;4040205;28;20054;-78
2022/03/27 07:50:54;;;;;;;28.85;7.25;;;5.60;85.70;;;;;;4043825;28;20120;-79
2022/03/27 07:52:55;;;;;;;26.08;6.20;;;5.60;84.90;;;;;;4039527;28;20483;-78
2022/03/27 07:54:56;;;;;;;24.60;6.10;;;5.70;84.40;;;;;;4052869;28;20079;-77
2022/03/27 07:56:56;;;;;;;22.38;5.47;;;5.80;83.80;;;;;;4042473;28;20111;-78
2022/03/27 07:58:57;;;;;;;24.25;5.65;;;5.90;83.80;;;;;;4039939;28;20037;-78
2022/03/27 08:00:57;;;;;;;21.92;4.97;;;6.00;82.30;;;;;;4045105;28;20036;-78
2022/03/27 08:02:58;;;;;;;25.05;5.05;;;6.00;81.30;;;;;;4023595;28;20044;-78
2022/03/27 08:05:00;;;;;;;23.65;4.60;;;6.10;80.30;;;;;;4061424;28;20028;-79
2022/03/27 08:07:02;;;;;;;19.02;5.13;;;6.20;79.20;;;;;;4041034;28;20144;-78
2022/03/27 08:09:06;;;;;;;21.42;4.63;;;6.20;78.20;;;;;;4042182;28;20383;-78
2022/03/27 08:11:08;;;;;;;24.42;4.95;;;6.30;77.90;;;;;;4061790;28;20129;-78
2022/03/27 08:13:08;;;;;;;14.10;3.95;;;6.40;76.80;;;;;;4047534;28;20025;-79
2022/03/27 08:15:20;;;;;;;14.30;3.80;;;6.50;75.20;;;;;;4058487;28;20485;-78
2022/03/27 08:17:21;;;;;;;18.17;3.97;;;6.60;73.90;;;;;;4045058;28;20028;-78
2022/03/27 08:19:21;;;;;;;22.23;4.70;;;6.60;72.70;;;;;;4061164;28;20031;-78
2022/03/27 08:21:22;;;;;;;24.67;4.60;;;6.60;72.00;;;;;;4054094;28;20025;-78
2022/03/27 08:23:23;;;;;;;27.42;4.68;;;6.70;71.90;;;;;;4046010;28;20699;-78
2022/03/27 08:27:43;;;;;;;25.92;4.38;;;6.90;70.40;;;;;;4044882;28;20037;-78
2022/03/27 08:29:44;;;;;;;18.95;4.07;;;6.90;70.20;;;;;;4048992;28;20077;-78
2022/03/27 08:31:46;;;;;;;20.42;3.92;;;7.00;70.10;;;;;;4057643;28;20451;-78
2022/03/27 08:33:48;;;;;;;21.48;4.32;;;7.10;70.30;;;;;;4061817;28;20036;-78
2022/03/27 08:35:49;;;;;;;25.05;4.10;;;7.20;70.30;;;;;;4030695;28;20033;-79
2022/03/27 08:37:49;;;;;;;24.13;5.72;;;7.20;70.00;;;;;;4046168;28;20037;-78
2022/03/27 08:39:53;;;;;;;24.80;4.43;;;7.30;69.60;;;;;;4051838;28;20048;-78
2022/03/27 08:41:54;;;;;;;;;;;7.40;69.10;;;;;;4049548;29;20394;-79
2022/03/27 08:43:58;;;;;;;25.20;4.47;;;7.40;68.30;;;;;;4046619;28;19962;-78
2022/03/27 08:45:59;;;;;;;;;;;7.50;68.70;;;;;;4017028;28;20042;-78
2022/03/27 08:48:00;;;;;;;23.08;5.10;;;7.60;67.90;;;;;;4125347;28;20004;-79
2022/03/27 08:50:21;;;;;;;22.60;4.90;;;7.70;67.90;;;;;;4042011;28;20091;-79
2022/03/27 08:52:51;;;;;;;23.00;4.07;;;7.70;67.80;;;;;;4064778;28;20091;-78
2022/03/27 08:55:17;;;;;;;17.65;3.80;;;7.80;67.80;;;;;;4061455;28;20107;-78
2022/03/27 08:57:24;;;;;;;16.33;3.60;;;7.80;66.80;;;;;;4041430;28;20514;-78
2022/03/27 08:59:25;;;;;;;18.90;3.75;;;7.90;66.80;;;;;;4059039;28;20039;-79
2022/03/27 09:01:26;;;;;;;27.35;4.57;;;8.00;67.10;;;;;;4045564;28;20033;-79
2022/03/27 09:03:27;;;;;;;22.17;4.07;;;8.00;65.90;;;;;;4047013;28;20028;-78
2022/03/27 09:05:28;;;;;;;14.23;4.18;;;8.00;65.90;;;;;;4053891;28;20083;-78
2022/03/27 09:07:30;;;;;;;29.83;3.55;;;8.20;66.00;;;;;;4043901;28;20025;-78
2022/03/27 09:09:35;;;;;;;16.08;3.33;;;8.20;65.70;;;;;;4057138;23;20041;-75
2022/03/27 09:11:36;;;;;;;13.85;3.22;;;8.30;65.50;;;;;;4050587;28;20061;-75
2022/03/27 09:13:36;;;;;;;17.73;3.33;;;8.30;65.20;;;;;;4041503;28;20029;-75
2022/03/27 09:15:37;;;;;;;16.98;3.75;;;8.40;64.60;;;;;;4060649;28;20033;-75
2022/03/27 09:18:00;;;;;;;18.20;3.58;;;8.40;64.30;;;;;;4035275;28;20077;-75
2022/03/27 09:20:02;;;;;;;20.63;3.63;;;8.50;64.40;;;;;;4016911;29;20060;-75
2022/03/27 09:22:16;;;;;;;21.05;3.33;;;8.50;64.60;;;;;;4019972;29;20038;-76
2022/03/27 09:24:17;;;;;;;12.27;3.08;;;8.60;64.00;;;;;;4026721;29;20450;-75
2022/03/27 09:26:17;;;;;;;17.98;4.20;;;8.70;63.60;;;;;;4011562;29;20037;-75
2022/03/27 09:28:28;;;;;;;21.40;3.70;;;8.70;62.60;;;;;;4027739;28;20080;-75
2022/03/27 09:30:33;;;;;;;14.95;2.50;;;8.80;62.40;;;;;;4087861;28;21773;-75
2022/03/27 09:32:35;;;;;;;15.98;3.30;;;8.90;62.30;;;;;;4085420;28;20039;-75
2022/03/27 09:34:59;;;;;;;19.10;3.08;;;8.90;61.00;;;;;;4029749;28;20041;-75
2022/03/27 09:37:00;;;;;;;16.33;2.75;;;9.00;59.30;;;;;;4012245;28;20045;-75
2022/03/27 09:39:13;;;;;;;16.55;3.15;;;9.10;59.90;;;;;;4022278;29;20045;-75
2022/03/27 09:41:32;;;;;;;22.00;3.78;;;9.10;59.60;;;;;;4087544;28;20421;-75
2022/03/27 09:43:32;;;;;;;17.65;2.97;;;9.10;58.50;;;;;;4008891;29;20038;-75
2022/03/27 09:45:33;;;;;;;13.07;3.10;;;9.20;58.50;;;;;;4068409;29;21038;-75
2022/03/27 09:47:33;;;;;;;16.05;3.25;;;9.30;56.90;;;;;;4008898;29;20320;-75
2022/03/27 09:49:34;;;;;;;13.10;3.17;;;9.30;56.30;;;;;;4009456;29;20026;-76
2022/03/27 09:51:54;;;;;;;22.95;3.42;;;9.40;56.20;;;;;;4010659;28;20479;-75
2022/03/27 09:53:58;;;;;;;10.23;2.17;;;9.50;53.50;;;;;;4004344;29;20117;-75
2022/03/27 09:55:59;;;;;;;11.73;2.55;;;9.70;53.10;;;;;;4010609;28;20037;-76
2022/03/27 09:58:00;;;;;;;15.38;2.92;;;9.80;52.90;;;;;;4020915;28;20112;-75
2022/03/27 10:00:13;;;;;;;8.90;2.45;;;9.90;52.60;;;;;;4020436;28;20037;-75
2022/03/27 10:02:21;;;;;;;15.73;2.78;;;10.00;52.40;;;;;;4008773;29;20034;-76
2022/03/27 10:04:22;;;;;;;12.85;2.53;;;10.10;51.70;;;;;;4024503;29;20390;-75
2022/03/27 10:06:26;;;;;;;13.85;2.30;;;10.20;50.70;;;;;;4025933;29;20814;-75
2022/03/27 10:08:27;;;;;;;18.92;2.72;;;10.30;51.00;;;;;;4014708;29;20045;-76
2022/03/27 10:10:28;;;;;;;15.57;2.47;;;10.30;50.80;;;;;;4031366;28;20041;-75
2022/03/27 10:12:30;;;;;;;17.33;2.75;;;10.40;51.80;;;;;;4007267;29;20044;-75
2022/03/27 10:14:30;;;;;;;13.77;2.78;;;10.40;52.10;;;;;;4016451;28;20375;-75
2022/03/27 10:16:34;;;;;;;20.73;3.63;;;10.40;51.50;;;;;;4038924;28;20037;-75
2022/03/27 10:18:34;;;;;;;11.20;2.50;;;10.50;52.30;;;;;;4011892;29;20030;-76
2022/03/27 10:20:36;;;;;;;14.18;3.13;;;10.50;52.10;;;;;;4026432;28;20321;-76
2022/03/27 10:22:40;;;;;;;17.05;3.42;;;10.60;52.90;;;;;;4009242;29;20563;-76
2022/03/27 10:24:40;;;;;;;17.15;2.75;;;10.70;52.80;;;;;;4007713;28;20049;-75
2022/03/27 10:26:43;;;;;;;12.50;2.33;;;10.80;53.20;;;;;;4011545;29;20115;-75
2022/03/27 10:28:44;;;;;;;21.57;3.57;;;10.80;53.40;;;;;;4080057;28;20501;-75
2022/03/27 10:30:44;;;;;;;12.95;2.42;;;10.90;53.80;;;;;;4006731;29;20033;-75
2022/03/27 10:32:45;;;;;;;23.50;3.40;;;11.00;53.90;;;;;;4005583;29;20508;-76
2022/03/27 10:35:17;;;;;;;21.27;4.18;;;11.00;53.80;;;;;;4030892;28;20041;-75
2022/03/27 10:37:33;;;;;;;14.98;3.42;;;11.10;54.10;;;;;;4014109;29;20354;-76
2022/03/27 10:39:40;;;;;;;16.73;2.92;;;11.10;54.20;;;;;;4022585;28;20029;-76
2022/03/27 10:42:04;;;;;;;25.15;4.82;;;11.20;54.60;;;;;;4077000;28;20058;-76
2022/03/27 10:44:30;;;;;;;16.17;3.17;;;11.20;54.40;;;;;;4026123;28;20549;-76